Time;durP1;ratioP1;P1;durP2;ratioP2;P2;SDS_P1;SDS_P2;PMS_P1;PMS_P2;Temp;Humidity;BMP_temperature;BMP_pressure;BME280_temperature;BME280_humidity;BME280_pressure;Samples;Min_cycle;Max_cycle;Signal;HPM_P1;HPM_P2
2023/05/02 00:04:46;;;;;;;13.20;7.37;;;;;;;;;;10283326;28;20039;-80
2023/05/02 00:09:49;;;;;;;15.70;8.13;;;;;;;;;;10282631;28;20129;-80
2023/05/02 00:14:51;;;;;;;17.47;8.67;;;;;;;;;;10283808;28;20038;-81
2023/05/02 00:19:52;;;;;;;17.83;8.27;;;;;;;;;;10281872;28;20435;-80
2023/05/02 00:24:58;;;;;;;17.23;8.10;;;;;;;;;;10277419;28;20035;-81
2023/05/02 00:29:59;;;;;;;12.33;6.57;;;;;;;;;;10282921;28;20163;-80
2023/05/02 00:35:00;;;;;;;15.20;8.13;;;;;;;;;;10281269;28;20078;-79
2023/05/02 00:40:02;;;;;;;17.00;8.50;;;;;;;;;;10271248;28;20445;-81
2023/05/02 00:45:05;;;;;;;18.63;8.27;;;;;;;;;;10280564;28;20038;-81
2023/05/02 00:50:11;;;;;;;18.10;9.37;;;;;;;;;;10281745;28;20038;-80
2023/05/02 00:55:14;;;;;;;;;;;;;;;;;;10280123;28;20047;-80
2023/05/02 01:00:15;;;;;;;18.63;9.53;;;;;;;;;;10281031;28;19918;-80
2023/05/02 01:05:24;;;;;;;17.53;9.23;;;;;;;;;;10267896;28;20031;-80
2023/05/02 01:10:44;;;;;;;18.27;9.03;;;;;;;;;;10278852;28;20027;-81
2023/05/02 01:15:45;;;;;;;20.30;9.63;;;;;;;;;;10271369;28;20447;-80
2023/05/02 01:20:47;;;;;;;17.93;9.57;;;;;;;;;;10279868;28;20117;-80
2023/05/02 01:25:50;;;;;;;18.17;9.63;;;;;;;;;;10281358;28;20386;-81
2023/05/02 01:30:53;;;;;;;25.13;8.97;;;;;;;;;;10281379;28;20037;-82
2023/05/02 01:35:57;;;;;;;17.20;8.70;;;;;;;;;;10273200;28;20153;-81
2023/05/02 01:41:02;;;;;;;16.97;8.90;;;;;;;;;;10275423;28;20042;-82
2023/05/02 01:46:04;;;;;;;17.30;8.00;;;;;;;;;;10280309;28;20035;-81
2023/05/02 01:51:06;;;;;;;18.17;8.80;;;;;;;;;;10279001;28;20031;-79
2023/05/02 01:56:08;;;;;;;16.00;8.30;;;;;;;;;;10280382;28;20514;-81
2023/05/02 02:01:11;;;;;;;19.57;9.13;;;;;;;;;;10277589;28;20047;-80
2023/05/02 02:06:14;;;;;;;16.20;8.93;;;;;;;;;;10280148;28;20038;-79
2023/05/02 02:11:17;;;;;;;17.27;9.10;;;;;;;;;;10279635;28;20398;-81
2023/05/02 02:16:21;;;;;;;17.97;8.27;;;;;;;;;;10274843;28;20031;-80
2023/05/02 02:21:23;;;;;;;16.00;8.60;;;;;;;;;;10290031;28;20038;-80
2023/05/02 02:26:24;;;;;;;16.93;9.23;;;;;;;;;;10279384;28;20031;-81
2023/05/02 02:31:29;;;;;;;18.83;8.27;;;;;;;;;;10280169;28;20058;-81
2023/05/02 02:36:38;;;;;;;17.52;8.20;;;;;;;;;;10286773;28;20035;-81
2023/05/02 02:41:45;;;;;;;17.87;8.53;;;;;;;;;;10286186;28;20031;-80
2023/05/02 02:46:50;;;;;;;16.50;8.97;;;;;;;;;;10274772;28;20185;-81
2023/05/02 02:52:00;;;;;;;19.83;9.70;;;;;;;;;;10284392;28;20039;-79
2023/05/02 02:57:08;;;;;;;17.17;9.70;;;;;;;;;;10286347;28;20491;-80
2023/05/02 03:02:14;;;;;;;19.77;10.03;;;;;;;;;;10279471;28;20058;-80
2023/05/02 03:07:15;;;;;;;29.13;11.07;;;;;;;;;;10284399;28;20057;-79
2023/05/02 03:12:16;;;;;;;16.43;9.00;;;;;;;;;;10275853;28;20039;-79
2023/05/02 03:17:17;;;;;;;23.97;11.90;;;;;;;;;;10274396;28;20398;-80
2023/05/02 03:22:20;;;;;;;19.40;10.70;;;;;;;;;;10283881;28;20090;-80
2023/05/02 03:27:21;;;;;;;22.00;11.10;;;;;;;;;;10284397;28;20030;-80
2023/05/02 03:32:22;;;;;;;20.30;10.97;;;;;;;;;;10283509;28;20061;-81
2023/05/02 03:37:28;;;;;;;19.37;10.93;;;;;;;;;;10283784;28;20029;-80
2023/05/02 03:42:32;;;;;;;18.55;10.43;;;;;;;;;;10283355;28;20031;-80
2023/05/02 03:47:33;;;;;;;21.13;11.07;;;;;;;;;;10275899;28;20030;-81
2023/05/02 03:52:36;;;;;;;19.67;10.13;;;;;;;;;;10284513;28;20030;-79
2023/05/02 03:57:37;;;;;;;22.77;11.13;;;;;;;;;;10280465;28;20122;-80
2023/05/02 04:02:38;;;;;;;19.40;10.80;;;;;;;;;;10283720;28;20061;-80
2023/05/02 04:07:39;;;;;;;20.43;10.70;;;;;;;;;;10283474;28;20153;-80
2023/05/02 04:12:40;;;;;;;18.67;10.67;;;;;;;;;;10280091;28;20034;-80
2023/05/02 04:17:41;;;;;;;20.63;10.47;;;;;;;;;;10282660;28;20039;-81
2023/05/02 04:22:42;;;;;;;14.57;8.20;;;;;;;;;;10282667;28;20144;-81
2023/05/02 04:27:46;;;;;;;15.00;8.47;;;;;;;;;;10281450;28;20217;-80
2023/05/02 04:32:47;;;;;;;14.83;7.93;;;;;;;;;;10280626;28;20406;-80
2023/05/02 04:37:47;;;;;;;20.20;8.63;;;;;;;;;;10282768;28;20033;-80
2023/05/02 04:42:48;;;;;;;13.77;7.63;;;;;;;;;;10274906;28;20054;-80
2023/05/02 04:47:52;;;;;;;13.03;7.03;;;;;;;;;;10281833;28;20497;-80
2023/05/02 04:53:00;;;;;;;14.45;7.75;;;;;;;;;;10247605;28;20038;-79
2023/05/02 04:58:07;;;;;;;16.10;8.80;;;;;;;;;;10245193;28;20149;-80
2023/05/02 05:03:13;;;;;;;18.25;8.70;;;;;;;;;;10249557;28;20063;-80
2023/05/02 05:08:14;;;;;;;15.02;7.15;;;;;;;;;;10255982;28;20027;-81
2023/05/02 05:13:17;;;;;;;12.23;7.13;;;;;;;;;;10253078;28;20039;-81
2023/05/02 05:18:18;;;;;;;12.93;6.95;;;;;;;;;;10246991;28;20137;-80
2023/05/02 05:23:19;;;;;;;15.05;7.57;;;;;;;;;;10265676;28;20023;-80
2023/05/02 05:28:20;;;;;;;11.45;6.28;;;;;;;;;;10276609;28;20035;-81
2023/05/02 05:33:21;;;;;;;10.57;5.65;;;;;;;;;;10272358;28;20039;-80
2023/05/02 05:38:22;;;;;;;11.93;6.20;;;;;;;;;;10256453;28;20049;-81
2023/05/02 05:43:25;;;;;;;8.68;5.30;;;;;;;;;;10276756;28;20092;-82
2023/05/02 05:48:26;;;;;;;10.93;6.25;;;;;;;;;;10270669;28;20031;-79
2023/05/02 05:53:27;;;;;;;12.70;6.70;;;;;;;;;;10266554;28;20402;-79
2023/05/02 05:58:27;;;;;;;9.75;5.78;;;;;;;;;;10265942;28;20171;-80
2023/05/02 06:03:29;;;;;;;10.30;6.60;;;;;;;;;;10267573;28;20034;-82
2023/05/02 06:08:30;;;;;;;9.02;5.13;;;;;;;;;;10286649;28;20030;-79
2023/05/02 06:13:31;;;;;;;9.45;5.57;;;;;;;;;;10283675;28;20502;-80
2023/05/02 06:18:32;;;;;;;10.63;6.18;;;;;;;;;;10277553;28;20032;-80
2023/05/02 06:23:33;;;;;;;10.20;5.55;;;;;;;;;;10284215;28;20050;-82
2023/05/02 06:28:34;;;;;;;8.43;5.22;;;;;;;;;;10281873;28;20027;-81
2023/05/02 06:33:37;;;;;;;9.93;5.55;;;;;;;;;;10284650;28;20070;-81
2023/05/02 06:38:38;;;;;;;7.68;4.72;;;;;;;;;;10277581;28;20037;-81
2023/05/02 06:43:40;;;;;;;9.18;4.72;;;;;;;;;;10279453;28;20031;-80
2023/05/02 06:48:43;;;;;;;7.22;4.00;;;;;;;;;;10276970;28;20078;-80
2023/05/02 06:53:44;;;;;;;9.98;4.25;;;;;;;;;;10262371;28;20042;-80
2023/05/02 06:58:47;;;;;;;6.90;3.88;;;;;;;;;;10277692;28;20085;-79
2023/05/02 07:03:48;;;;;;;6.32;3.88;;;;;;;;;;10283283;28;20039;-78
2023/05/02 07:08:49;;;;;;;5.88;3.28;;;;;;;;;;10280722;28;20034;-77
2023/05/02 07:13:50;;;;;;;5.90;3.15;;;;;;;;;;10281970;28;20703;-78
2023/05/02 07:18:51;;;;;;;4.88;3.00;;;;;;;;;;10273659;28;20037;-78
2023/05/02 07:23:54;;;;;;;5.97;3.30;;;;;;;;;;10285292;28;20039;-81
2023/05/02 07:28:55;;;;;;;8.52;3.33;;;;;;;;;;10268145;28;20031;-79
2023/05/02 07:33:56;;;;;;;5.88;3.65;;;;;;;;;;10274254;28;20042;-78
2023/05/02 07:38:57;;;;;;;9.88;5.07;;;;;;;;;;10280328;28;20434;-78
2023/05/02 07:44:00;;;;;;;8.55;4.32;;;;;;;;;;10280719;28;20470;-78
2023/05/02 07:49:01;;;;;;;8.32;3.83;;;;;;;;;;10273898;28;20034;-78
2023/05/02 07:54:02;;;;;;;7.95;4.35;;;;;;;;;;10283881;28;20046;-78
2023/05/02 07:59:02;;;;;;;7.18;3.65;;;;;;;;;;10275920;28;20133;-79
2023/05/02 08:04:04;;;;;;;5.95;3.50;;;;;;;;;;10282015;28;20035;-79
2023/05/02 08:09:05;;;;;;;7.88;2.78;;;;;;;;;;10274489;28;20038;-79
2023/05/02 08:14:08;;;;;;;7.07;3.08;;;;;;;;;;10277125;28;20054;-78
2023/05/02 08:19:09;;;;;;;4.30;2.90;;;;;;;;;;10272155;28;20034;-79
2023/05/02 08:24:10;;;;;;;8.40;4.10;;;;;;;;;;10279915;28;20105;-78
2023/05/02 08:29:11;;;;;;;4.85;2.60;;;;;;;;;;10268280;28;20167;-79
2023/05/02 08:34:12;;;;;;;3.90;1.98;;;;;;;;;;10280366;28;20405;-78
2023/05/02 08:39:13;;;;;;;6.70;2.40;;;;;;;;;;10267424;28;20214;-79
2023/05/02 08:44:17;;;;;;;4.97;2.40;;;;;;;;;;10271012;28;20438;-78
2023/05/02 08:49:19;;;;;;;6.65;3.03;;;;;;;;;;10279756;28;20023;-78
2023/05/02 08:54:24;;;;;;;4.97;2.42;;;;;;;;;;10262707;28;20046;-78
2023/05/02 08:59:25;;;;;;;4.40;2.50;;;;;;;;;;10276301;28;20063;-78
2023/05/02 09:04:31;;;;;;;7.97;2.70;;;;;;;;;;10280856;28;20130;-78
2023/05/02 09:09:33;;;;;;;5.88;2.88;;;;;;;;;;10276890;28;20502;-79
2023/05/02 09:14:34;;;;;;;3.42;2.53;;;;;;;;;;10279240;28;20043;-78
2023/05/02 09:19:35;;;;;;;6.82;3.65;;;;;;;;;;10278869;28;20022;-79
2023/05/02 09:24:37;;;;;;;6.40;4.38;;;;;;;;;;10266434;28;20142;-78
2023/05/02 09:29:39;;;;;;;4.50;2.70;;;;;;;;;;10275548;28;20494;-79
2023/05/02 09:34:55;;;;;;;5.22;3.30;;;;;;;;;;10272032;28;20585;-78
2023/05/02 09:40:06;;;;;;;4.82;3.08;;;;;;;;;;10270036;28;20822;-79
2023/05/02 09:45:07;;;;;;;4.53;2.85;;;;;;;;;;10287020;28;20039;-79
2023/05/02 09:50:10;;;;;;;6.95;3.40;;;;;;;;;;10278318;28;20478;-79
2023/05/02 09:55:20;;;;;;;5.70;3.85;;;;;;;;;;10271589;28;20039;-78
2023/05/02 10:00:21;;;;;;;7.85;4.72;;;;;;;;;;10298889;23;20081;-79
2023/05/02 10:05:22;;;;;;;6.95;5.13;;;;;;;;;;10267501;28;20027;-79
2023/05/02 10:10:23;;;;;;;7.43;4.55;;;;;;;;;;10272634;28;20062;-79
2023/05/02 10:15:26;;;;;;;6.35;5.18;;;;;;;;;;10274832;28;20494;-79
2023/05/02 10:20:34;;;;;;;5.25;4.43;;;;;;;;;;10266560;28;20475;-78
2023/05/02 10:25:36;;;;;;;7.93;4.93;;;;;;;;;;10267726;28;20046;-78
2023/05/02 10:30:37;;;;;;;8.38;4.72;;;;;;;;;;10272661;28;20117;-78
2023/05/02 10:35:39;;;;;;;9.20;5.78;;;;;;;;;;10280395;28;20479;-79
2023/05/02 10:40:41;;;;;;;7.47;5.07;;;;;;;;;;10277152;28;20038;-79
2023/05/02 10:45:42;;;;;;;9.05;5.50;;;;;;;;;;10284389;28;20031;-79
2023/05/02 10:50:46;;;;;;;7.95;5.65;;;;;;;;;;10284032;28;20691;-79
2023/05/02 10:56:09;;;;;;;8.35;5.40;;;;;;;;;;10279261;28;20045;-78
2023/05/02 11:01:25;;;;;;;8.40;5.53;;;;;;;;;;10280528;28;20062;-79
2023/05/02 11:06:27;;;;;;;6.63;5.25;;;;;;;;;;10284974;28;20033;-79
2023/05/02 11:11:37;;;;;;;8.60;5.65;;;;;;;;;;10272516;28;20054;-81
2023/05/02 11:16:59;;;;;;;8.02;5.63;;;;;;;;;;10278227;28;20108;-79
2023/05/02 11:22:22;;;;;;;10.80;6.40;;;;;;;;;;10280069;28;20804;-79
2023/05/02 11:27:29;;;;;;;7.72;5.70;;;;;;;;;;10260054;28;20475;-80
2023/05/02 11:32:48;;;;;;;9.02;5.13;;;;;;;;;;10270039;28;20574;-79
2023/05/02 11:37:53;;;;;;;8.75;5.85;;;;;;;;;;10282601;28;20480;-79
2023/05/02 11:42:57;;;;;;;7.63;5.40;;;;;;;;;;10283885;28;20034;-80
2023/05/02 11:53:52;;;;;;;7.80;5.50;;;;;;;;;;10280986;28;20050;-80
2023/05/02 11:59:07;;;;;;;7.18;5.22;;;;;;;;;;10264317;28;20058;-80
2023/05/02 12:04:09;;;;;;;9.90;6.03;;;;;;;;;;10280562;28;20530;-81
2023/05/02 12:09:20;;;;;;;7.25;6.07;;;;;;;;;;10255793;28;20034;-80
2023/05/02 12:14:28;;;;;;;7.93;5.97;;;;;;;;;;10269125;28;20748;-80
2023/05/02 12:19:29;;;;;;;8.77;5.20;;;;;;;;;;10280549;28;20501;-80
2023/05/02 12:24:30;;;;;;;6.63;5.20;;;;;;;;;;10280624;28;20054;-80
2023/05/02 12:29:41;;;;;;;8.73;6.18;;;;;;;;;;10281374;28;20039;-80
2023/05/02 12:34:44;;;;;;;8.48;5.78;;;;;;;;;;10262478;28;20046;-81
2023/05/02 12:39:45;;;;;;;7.07;5.20;;;;;;;;;;10273224;28;20498;-80
2023/05/02 12:44:51;;;;;;;6.70;4.07;;;;;;;;;;10285006;28;20023;-81
2023/05/02 12:49:59;;;;;;;4.00;3.60;;;;;;;;;;10285960;28;20061;-79
2023/05/02 12:55:19;;;;;;;4.63;4.07;;;;;;;;;;10280607;28;20046;-81
2023/05/02 13:00:20;;;;;;;5.60;4.10;;;;;;;;;;10281835;28;20109;-80
2023/05/02 13:05:28;;;;;;;4.75;3.92;;;;;;;;;;10279932;28;20031;-80
2023/05/02 13:10:29;;;;;;;6.15;3.80;;;;;;;;;;10281006;28;20176;-80
2023/05/02 13:15:39;;;;;;;7.72;3.90;;;;;;;;;;10267684;28;20046;-82
2023/05/02 13:20:40;;;;;;;8.88;4.75;;;;;;;;;;10273828;28;20640;-81
2023/05/02 13:25:41;;;;;;;4.65;2.97;;;;;;;;;;10282191;28;20038;-81
2023/05/02 13:30:42;;;;;;;5.07;2.58;;;;;;;;;;10260250;28;20082;-80
2023/05/02 13:36:11;;;;;;;4.57;2.67;;;;;;;;;;10279862;28;20074;-81
2023/05/02 13:41:24;;;;;;;3.70;2.80;;;;;;;;;;10262398;28;20054;-79
2023/05/02 13:46:41;;;;;;;3.25;2.83;;;;;;;;;;10261268;28;20038;-80
2023/05/02 13:51:56;;;;;;;3.50;2.30;;;;;;;;;;10260677;28;20061;-81
2023/05/02 13:56:57;;;;;;;4.07;2.30;;;;;;;;;;10255461;28;20069;-80
2023/05/02 14:01:59;;;;;;;2.72;1.80;;;;;;;;;;10276308;28;20058;-80
2023/05/02 14:07:00;;;;;;;2.15;1.95;;;;;;;;;;10276887;28;20034;-81
2023/05/02 14:12:01;;;;;;;2.05;1.50;;;;;;;;;;10275486;28;20026;-80
2023/05/02 14:17:04;;;;;;;3.50;2.00;;;;;;;;;;10276661;28;20038;-81
2023/05/02 14:22:06;;;;;;;4.50;2.42;;;;;;;;;;10277897;28;20031;-80
2023/05/02 14:27:11;;;;;;;2.92;1.48;;;;;;;;;;10284664;28;20042;-80
2023/05/02 14:32:13;;;;;;;3.08;1.85;;;;;;;;;;10285096;28;20057;-80
2023/05/02 14:37:14;;;;;;;4.13;1.77;;;;;;;;;;10284413;28;20051;-80
2023/05/02 14:42:15;;;;;;;2.53;1.60;;;;;;;;;;10281745;28;20638;-81
2023/05/02 14:47:16;;;;;;;2.35;1.58;;;;;;;;;;10285486;28;20362;-81
2023/05/02 14:52:17;;;;;;;3.33;2.00;;;;;;;;;;10272651;28;20441;-80
2023/05/02 14:57:18;;;;;;;3.22;1.48;;;;;;;;;;10274202;28;20039;-81
2023/05/02 15:02:20;;;;;;;3.83;1.90;;;;;;;;;;10282569;28;20047;-82
2023/05/02 15:07:21;;;;;;;2.47;1.75;;;;;;;;;;10283597;28;20113;-81
2023/05/02 15:12:25;;;;;;;2.15;1.80;;;;;;;;;;10290226;28;20031;-78
2023/05/02 15:17:27;;;;;;;2.58;2.00;;;;;;;;;;10281718;28;20034;-81
2023/05/02 15:22:30;;;;;;;3.70;2.47;;;;;;;;;;10263628;28;20035;-80
2023/05/02 15:27:32;;;;;;;4.13;2.20;;;;;;;;;;10283741;28;20592;-81
2023/05/02 15:32:33;;;;;;;3.20;2.10;;;;;;;;;;10282896;28;20061;-81
2023/05/02 15:37:35;;;;;;;4.28;2.80;;;;;;;;;;10280955;28;20043;-80
2023/05/02 15:42:36;;;;;;;2.60;2.40;;;;;;;;;;10286830;28;20491;-80
2023/05/02 15:47:37;;;;;;;3.95;2.75;;;;;;;;;;10282324;28;20038;-82
2023/05/02 15:52:38;;;;;;;3.45;2.80;;;;;;;;;;10282375;28;20371;-80
2023/05/02 15:57:40;;;;;;;4.50;3.00;;;;;;;;;;10279914;28;20081;-81
2023/05/02 16:02:41;;;;;;;5.32;3.08;;;;;;;;;;10280619;28;20030;-81
2023/05/02 16:07:42;;;;;;;10.40;5.97;;;;;;;;;;10280249;28;20038;-82
2023/05/02 16:12:45;;;;;;;6.40;3.35;;;;;;;;;;10291815;28;20474;-81
2023/05/02 16:17:47;;;;;;;5.05;3.33;;;;;;;;;;10273855;28;20047;-80
2023/05/02 16:22:48;;;;;;;5.35;3.40;;;;;;;;;;10282012;28;20048;-82
2023/05/02 16:27:49;;;;;;;4.78;4.07;;;;;;;;;;10280578;28;20053;-79
2023/05/02 16:32:50;;;;;;;9.55;5.05;;;;;;;;;;10271352;28;20516;-82
2023/05/02 16:37:54;;;;;;;6.90;4.45;;;;;;;;;;10247048;28;20063;-80
2023/05/02 16:42:57;;;;;;;8.20;4.78;;;;;;;;;;10265609;28;20038;-81
2023/05/02 16:47:59;;;;;;;6.63;4.68;;;;;;;;;;10279414;28;20094;-81
2023/05/02 16:53:00;;;;;;;6.88;5.07;;;;;;;;;;10277091;28;20126;-82
2023/05/02 16:58:01;;;;;;;10.88;5.82;;;;;;;;;;10279684;28;20548;-80
2023/05/02 17:03:02;;;;;;;8.50;6.68;;;;;;;;;;10280605;28;20038;-79
2023/05/02 17:08:03;;;;;;;10.75;6.93;;;;;;;;;;10285421;28;20026;-82
2023/05/02 17:13:05;;;;;;;11.60;7.13;;;;;;;;;;10279508;28;20042;-81
2023/05/02 17:18:06;;;;;;;12.27;7.75;;;;;;;;;;10282743;28;20077;-81
2023/05/02 17:23:07;;;;;;;10.55;7.22;;;;;;;;;;10285982;28;20045;-81
2023/05/02 17:28:08;;;;;;;11.88;8.20;;;;;;;;;;10281329;28;20126;-81
2023/05/02 17:33:10;;;;;;;34.75;20.25;;;;;;;;;;10270957;28;20031;-80
2023/05/02 17:38:11;;;;;;;26.75;15.38;;;;;;;;;;10260033;28;20556;-81
2023/05/02 17:43:15;;;;;;;17.67;10.48;;;;;;;;;;10279635;28;20145;-83
2023/05/02 17:48:17;;;;;;;24.15;13.05;;;;;;;;;;10266027;28;20435;-82
2023/05/02 17:53:18;;;;;;;21.90;12.80;;;;;;;;;;10279470;28;20039;-80
2023/05/02 17:58:20;;;;;;;22.15;14.05;;;;;;;;;;10279545;28;20114;-81
2023/05/02 18:03:21;;;;;;;21.38;14.15;;;;;;;;;;10287216;28;20041;-80
2023/05/02 18:08:22;;;;;;;24.67;15.40;;;;;;;;;;10287377;28;20445;-81
2023/05/02 18:13:23;;;;;;;21.05;14.43;;;;;;;;;;10291073;28;20023;-81
2023/05/02 18:18:24;;;;;;;33.15;19.55;;;;;;;;;;10287403;28;20049;-81
2023/05/02 18:23:27;;;;;;;32.25;17.92;;;;;;;;;;10282698;28;20475;-80
2023/05/02 18:28:28;;;;;;;25.42;15.60;;;;;;;;;;10258207;28;20126;-81
2023/05/02 18:33:29;;;;;;;38.42;23.55;;;;;;;;;;10280907;28;20632;-78
2023/05/02 18:38:31;;;;;;;54.17;32.65;;;;;;;;;;10282824;28;20486;-80
2023/05/02 18:43:33;;;;;;;43.17;27.10;;;;;;;;;;10269800;28;20110;-82
2023/05/02 18:48:35;;;;;;;40.88;22.98;;;;;;;;;;10283317;28;20173;-80
2023/05/02 18:53:36;;;;;;;36.20;21.45;;;;;;;;;;10274440;28;20058;-80
2023/05/02 18:58:37;;;;;;;32.75;21.13;;;;;;;;;;10264387;28;20409;-81
2023/05/02 19:03:38;;;;;;;36.50;21.58;;;;;;;;;;10268538;28;20040;-80
2023/05/02 19:08:41;;;;;;;34.65;21.85;;;;;;;;;;10283843;28;20061;-80
2023/05/02 19:13:42;;;;;;;35.63;23.13;;;;;;;;;;10271757;28;20039;-82
2023/05/02 19:18:43;;;;;;;39.95;24.10;;;;;;;;;;10281952;28;20055;-80
2023/05/02 19:23:44;;;;;;;60.53;28.48;;;;;;;;;;10275891;28;20031;-80
2023/05/02 19:28:45;;;;;;;50.08;29.20;;;;;;;;;;10289405;28;20030;-81
2023/05/02 19:33:50;;;;;;;58.13;30.63;;;;;;;;;;10283670;28;20069;-81
2023/05/02 19:38:56;;;;;;;52.67;31.23;;;;;;;;;;10271755;28;20042;-80
2023/05/02 19:43:58;;;;;;;57.80;35.05;;;;;;;;;;10291505;28;20042;-81
2023/05/02 19:48:59;;;;;;;56.38;33.80;;;;;;;;;;10265752;28;20141;-80
2023/05/02 19:54:00;;;;;;;60.03;37.17;;;;;;;;;;10282702;28;20586;-80
2023/05/02 19:59:02;;;;;;;54.45;33.78;;;;;;;;;;10274416;28;20051;-82
2023/05/02 20:04:03;;;;;;;50.92;30.58;;;;;;;;;;10279675;28;20027;-82
2023/05/02 20:09:04;;;;;;;39.35;24.60;;;;;;;;;;10282575;28;20027;-81
2023/05/02 20:14:05;;;;;;;35.88;21.52;;;;;;;;;;10280489;28;20034;-81
2023/05/02 20:19:06;;;;;;;28.27;18.23;;;;;;;;;;10281766;28;20042;-83
2023/05/02 20:24:07;;;;;;;39.30;22.85;;;;;;;;;;10261110;28;20402;-82
2023/05/02 20:29:09;;;;;;;41.90;24.00;;;;;;;;;;10279284;28;20486;-81
2023/05/02 20:34:10;;;;;;;46.97;28.35;;;;;;;;;;10277761;28;20039;-83
2023/05/02 20:39:12;;;;;;;49.70;29.05;;;;;;;;;;10279952;28;20418;-81
2023/05/02 20:44:16;;;;;;;51.35;31.40;;;;;;;;;;10282853;28;20868;-81
2023/05/02 20:49:17;;;;;;;48.22;27.58;;;;;;;;;;10278368;28;20039;-81
2023/05/02 20:54:18;;;;;;;50.63;31.92;;;;;;;;;;10280216;28;20042;-82
2023/05/02 20:59:19;;;;;;;46.45;29.63;;;;;;;;;;10282706;28;20071;-81
2023/05/02 21:04:20;;;;;;;45.35;28.27;;;;;;;;;;10280354;28;20038;-82
2023/05/02 21:09:21;;;;;;;36.35;23.42;;;;;;;;;;10264139;28;20130;-82
2023/05/02 21:14:23;;;;;;;33.53;20.67;;;;;;;;;;10280208;28;20033;-81
2023/05/02 21:19:24;;;;;;;32.42;21.98;;;;;;;;;;10279424;28;20106;-82
2023/05/02 21:24:25;;;;;;;35.40;21.55;;;;;;;;;;10280322;28;20030;-82
2023/05/02 21:29:26;;;;;;;37.05;21.92;;;;;;;;;;10280308;28;20110;-83
2023/05/02 21:34:27;;;;;;;38.75;22.35;;;;;;;;;;10284846;28;20031;-81
2023/05/02 21:39:28;;;;;;;42.85;26.00;;;;;;;;;;10293672;28;20023;-82
2023/05/02 21:44:29;;;;;;;41.45;25.65;;;;;;;;;;10256191;28;20553;-80
2023/05/02 21:49:30;;;;;;;45.13;29.17;;;;;;;;;;10240162;28;20035;-81
2023/05/02 21:54:31;;;;;;;49.47;29.75;;;;;;;;;;10255274;28;20388;-81
2023/05/02 21:59:32;;;;;;;50.67;32.33;;;;;;;;;;10246662;28;20059;-81
2023/05/02 22:04:33;;;;;;;56.10;34.53;;;;;;;;;;10255630;28;20035;-82
2023/05/02 22:09:34;;;;;;;72.20;53.25;;;;;;;;;;10260254;28;20087;-81
2023/05/02 22:14:35;;;;;;;72.55;47.85;;;;;;;;;;10280232;28;20043;-81
2023/05/02 22:19:37;;;;;;;61.67;39.30;;;;;;;;;;10260816;28;20043;-81
2023/05/02 22:24:38;;;;;;;55.05;34.90;;;;;;;;;;10258942;28;20055;-82
2023/05/02 22:29:39;;;;;;;58.22;35.17;;;;;;;;;;10245856;28;20721;-81
2023/05/02 22:34:40;;;;;;;52.72;32.80;;;;;;;;;;10290949;28;20050;-81
2023/05/02 22:39:41;;;;;;;55.63;33.38;;;;;;;;;;10292770;28;20103;-81
2023/05/02 22:44:42;;;;;;;56.90;34.95;;;;;;;;;;10289380;28;20031;-82
2023/05/02 22:49:44;;;;;;;62.78;35.67;;;;;;;;;;10284834;28;20031;-83
2023/05/02 22:54:45;;;;;;;66.05;41.60;;;;;;;;;;10284719;28;20041;-80
2023/05/02 22:59:46;;;;;;;75.40;45.40;;;;;;;;;;10285522;28;20129;-80
2023/05/02 23:04:47;;;;;;;66.10;39.83;;;;;;;;;;10284404;28;20043;-81
2023/05/02 23:09:48;;;;;;;107.93;58.53;;;;;;;;;;10285619;28;20058;-81
2023/05/02 23:14:49;;;;;;;85.60;46.15;;;;;;;;;;10284963;28;20088;-81
2023/05/02 23:19:50;;;;;;;122.50;61.90;;;;;;;;;;10279440;28;20518;-81
2023/05/02 23:24:51;;;;;;;72.72;42.65;;;;;;;;;;10285479;28;20023;-82
2023/05/02 23:29:52;;;;;;;61.72;34.83;;;;;;;;;;10284368;28;20031;-81
2023/05/02 23:34:54;;;;;;;61.65;34.20;;;;;;;;;;10283377;28;20437;-82
2023/05/02 23:39:57;;;;;;;65.82;34.60;;;;;;;;;;10284975;28;20030;-81
2023/05/02 23:44:57;;;;;;;57.80;34.13;;;;;;;;;;10283898;28;20047;-81
2023/05/02 23:49:58;;;;;;;58.78;31.45;;;;;;;;;;10282611;28;20386;-82
2023/05/02 23:54:59;;;;;;;60.10;31.83;;;;;;;;;;10283074;28;20094;-82
